LTAT/MLX METAR and TAF weather

Enter ICAO airport designator
Station Type Date Time Source
LTAT METAR 2021/04/14 19:20 UTC NOAA

LTAT 141920Z 20006KT CAVOK 05/02 Q1020 NOSIG


Station Type Date Time Source
LTAT Decoded METAR 2021/04/14 19:20 UTC NOAA

Malatya / Erhac, Turkey (LTAT) 38-26N 038-05E 849M
Apr 14, 2021 - 03:20 PM EDT / 2021.04.14 1920 UTC
Wind: from the SSW (200 degrees) at 7 MPH (6 KT):0
Visibility: greater than 7 mile(s):0
Temperature: 41 F (5 C)
Dew Point: 35 F (2 C)
Relative Humidity: 80%
Pressure (altimeter): 30.12 in. Hg (1020 hPa)
ob: LTAT 141920Z 20006KT CAVOK 05/02 Q1020 NOSIG
cycle: 19

Station Type Date Time Source
LTAT TAF 2021/04/14 18:03 UTC NOAA

TAF LTAT 141640Z 1418/1518 VRB02KT CAVOK
BECMG 1504/1506 SCT040 PROB30
TEMPO 1510/1514 -SHRA FEW027CB BKN033 BKN090 PROB30
TEMPO 1514/1518 -SHRA BKN033 BKN090

Example: see airport list